Pagina principale
METAR-TAF:

METAR-TAF

Aeroporti :

Aeroporto di Matsapha

Manzini, Swaziland

latitudine: 26-32S, longitudine: 031-18E, altezza: 641 m

Osservazione

Il bollettino è stato emesso 2 ore e 57 minuti fa, alle 14:00 UTC
Vento 4 kt da est
Temperature 17°C
Umidità 94%
Pressione 1015 hPa
Visibilità: 8000 m
Nubi sparse ad un'altezza di 1500 ft
Nuvoloso ad un'altezza di 2500 ft
nebbia nelle vicinanze

METAR: FDMS 201400Z 09004KT 8000 VCFG SCT015 BKN025 17/16 Q1015 NOSIG

Ora: 18:57 (16:57 UTC)

Previsione

Il bollettino è stato emesso 9 ore e 57 minuti fa, alle 07:00 UTC
Previsione valida dal 20 alle 09 UTC al 20 alle 18 UTC
Vento 7 kt da sud-est
Visibilità 10 km o più
Nuvoloso ad un'altezza di 2500 ft
Temporaneamente
dal 20 alle 11 UTC al 20 alle 18 UTC
Visibilità: 7000 m
Nuvoloso ad un'altezza di 1500 ft
pioviggine debole

TAF: FDMS 200700Z 2009/2018 14007KT 9999 BKN025 TEMPO 2011/2018 7000 -DZ BKN015

Osservazioni e previsioni meteorologiche di più di 4000 aeroporti (messaggi METAR e TAF).

Le stazioni disponibili sono rappresentate dai dischi gialli e rossi sulla carta.

Puntare il mouse per vedere il nome della stazione.

Clicca sopra per visualizzare le osservazioni e previsioni meteorologiche.

Per cambiare la mappa : fare clic sui pulsanti verdi con una croce nera per ingrandire, il pulsante verde con un trattino per diminuire, o sulla freccia verde per le mappe adiacenti.


METAR-TAF: